Time;durP1;ratioP1;P1;durP2;ratioP2;P2;SDS_P1;SDS_P2;PMS_P1;PMS_P2;Temp;Humidity;BMP_temperature;BMP_pressure;BME280_temperature;BME280_humidity;BME280_pressure;Samples;Min_cycle;Max_cycle;Signal;HPM_P1;HPM_P2
2023/03/23 00:01:26;;;;;;;4.50;2.20;;;13.10;99.90;;;;;;5054777;28;20894;-66
2023/03/23 00:03:56;;;;;;;3.27;2.13;;;13.00;99.90;;;;;;5055677;28;20452;-66
2023/03/23 00:06:27;;;;;;;2.53;2.33;;;13.00;99.90;;;;;;5054902;28;20509;-66
2023/03/23 00:08:59;;;;;;;3.33;2.30;;;13.00;99.90;;;;;;5054863;28;20486;-66
2023/03/23 00:11:28;;;;;;;3.53;2.73;;;12.90;99.90;;;;;;5055030;28;20443;-66
2023/03/23 00:14:00;;;;;;;2.47;2.07;;;12.90;99.90;;;;;;5054751;28;20570;-66
2023/03/23 00:16:30;;;;;;;4.30;2.67;;;12.90;99.90;;;;;;5054575;28;20487;-67
2023/03/23 00:19:00;;;;;;;2.67;2.47;;;12.80;99.90;;;;;;5055337;28;20802;-66
2023/03/23 00:21:34;;;;;;;2.90;1.90;;;12.80;99.90;;;;;;5054705;28;20461;-65
2023/03/23 00:24:05;;;;;;;2.70;1.90;;;12.80;99.90;;;;;;5054596;28;20773;-67
2023/03/23 00:26:33;;;;;;;3.70;2.63;;;12.80;99.90;;;;;;5054759;28;20440;-67
2023/03/23 00:29:01;;;;;;;3.10;2.23;;;12.80;99.90;;;;;;5054736;28;20470;-67
2023/03/23 00:31:31;;;;;;;5.50;3.17;;;12.80;99.90;;;;;;5055381;28;20455;-66
2023/03/23 00:34:00;;;;;;;2.43;2.13;;;12.80;99.90;;;;;;5054232;28;20573;-66
2023/03/23 00:36:29;;;;;;;2.90;2.23;;;12.80;99.90;;;;;;5054686;28;20541;-65
2023/03/23 00:38:59;;;;;;;2.53;2.07;;;12.80;99.90;;;;;;5054279;28;20926;-66
2023/03/23 00:41:27;;;;;;;2.60;2.30;;;12.80;99.90;;;;;;5054613;28;20528;-67
2023/03/23 00:43:55;;;;;;;4.00;2.60;;;12.80;99.90;;;;;;5054524;28;20455;-66
2023/03/23 00:46:22;;;;;;;2.73;2.17;;;12.80;99.90;;;;;;5054833;28;20768;-66
2023/03/23 00:48:50;;;;;;;2.40;2.07;;;12.80;99.90;;;;;;5054613;28;20485;-66
2023/03/23 00:51:18;;;;;;;2.47;2.20;;;12.70;99.90;;;;;;5054599;28;20499;-66
2023/03/23 00:53:47;;;;;;;5.20;2.37;;;12.60;99.90;;;;;;5055128;28;20483;-66
2023/03/23 00:56:15;;;;;;;5.23;2.33;;;12.70;99.90;;;;;;5054730;28;20463;-66
2023/03/23 00:58:42;;;;;;;2.53;2.10;;;12.60;99.90;;;;;;5054785;28;20461;-66
2023/03/23 01:01:09;;;;;;;4.87;2.73;;;12.60;99.90;;;;;;5057175;28;20558;-63
2023/03/23 01:03:36;;;;;;;3.70;2.40;;;12.60;99.90;;;;;;5058882;28;20491;-62
2023/03/23 01:06:12;;;;;;;3.07;2.60;;;12.50;99.90;;;;;;5059360;28;20851;-63
2023/03/23 01:08:45;;;;;;;2.50;2.30;;;12.50;99.90;;;;;;5059152;28;20457;-63
2023/03/23 01:11:15;;;;;;;3.50;2.40;;;12.40;99.90;;;;;;5058746;28;20892;-64
2023/03/23 01:13:42;;;;;;;3.53;2.20;;;12.50;99.90;;;;;;5058259;28;20954;-63
2023/03/23 01:16:09;;;;;;;2.57;2.10;;;12.50;99.90;;;;;;5058452;28;20959;-63
2023/03/23 01:18:36;;;;;;;5.50;2.30;;;12.50;99.90;;;;;;5058493;28;20844;-63
2023/03/23 01:21:06;;;;;;;4.90;2.43;;;12.40;99.90;;;;;;5058407;28;20542;-63
2023/03/23 01:23:33;;;;;;;6.07;2.57;;;12.40;99.90;;;;;;5058609;28;20455;-63
2023/03/23 01:26:04;;;;;;;4.03;3.43;;;12.30;99.90;;;;;;5059125;28;20458;-65
2023/03/23 01:28:32;;;;;;;3.03;2.40;;;12.40;99.90;;;;;;5059692;28;20442;-66
2023/03/23 01:31:05;;;;;;;2.33;2.13;;;12.40;99.90;;;;;;5058971;28;20538;-67
2023/03/23 01:33:32;;;;;;;2.70;2.50;;;12.40;99.90;;;;;;5059434;28;20497;-66
2023/03/23 01:36:02;;;;;;;3.93;2.80;;;12.30;99.90;;;;;;5059376;28;20455;-65
2023/03/23 01:38:29;;;;;;;3.43;2.10;;;12.30;99.90;;;;;;5059424;28;20561;-66
2023/03/23 01:40:56;;;;;;;3.53;2.50;;;12.30;99.90;;;;;;5059654;28;20582;-66
2023/03/23 01:43:23;;;;;;;2.83;2.40;;;12.20;99.90;;;;;;5058771;28;20481;-66
2023/03/23 01:45:51;;;;;;;4.57;2.77;;;12.20;99.90;;;;;;5058606;28;20461;-67
2023/03/23 01:48:23;;;;;;;3.00;2.70;;;12.20;99.90;;;;;;5058895;28;20465;-66
2023/03/23 01:50:56;;;;;;;4.13;2.93;;;12.20;99.90;;;;;;5058489;28;20485;-66
2023/03/23 01:53:26;;;;;;;4.00;2.73;;;12.20;99.90;;;;;;5059728;28;20473;-66
2023/03/23 01:55:54;;;;;;;3.93;2.37;;;12.20;99.90;;;;;;5059103;28;20466;-66
2023/03/23 01:58:26;;;;;;;3.13;2.37;;;12.20;99.90;;;;;;5059341;28;20455;-67
2023/03/23 02:00:58;;;;;;;3.33;2.10;;;12.30;99.90;;;;;;5058855;28;20483;-65
2023/03/23 02:03:26;;;;;;;4.40;2.70;;;12.30;99.90;;;;;;5058693;28;20526;-66
2023/03/23 02:05:53;;;;;;;2.73;2.40;;;12.30;99.90;;;;;;5058814;28;20465;-67
2023/03/23 02:08:20;;;;;;;3.30;3.00;;;12.30;99.90;;;;;;5057882;28;20494;-66
2023/03/23 02:10:47;;;;;;;2.53;2.20;;;12.20;99.90;;;;;;5058694;28;20843;-64
2023/03/23 02:13:15;;;;;;;2.60;2.30;;;12.20;99.90;;;;;;5056963;28;20916;-65
2023/03/23 02:15:49;;;;;;;2.67;2.30;;;12.30;99.90;;;;;;5057613;28;20573;-67
2023/03/23 02:18:31;;;;;;;2.53;2.10;;;12.20;99.90;;;;;;5058492;28;20439;-66
2023/03/23 02:21:29;;;;;;;3.50;2.20;;;12.20;99.90;;;;;;5057656;28;20450;-66
2023/03/23 02:24:43;;;;;;;2.60;2.40;;;12.20;99.90;;;;;;5047189;28;20455;-66
2023/03/23 02:27:18;;;;;;;6.13;2.37;;;12.20;99.90;;;;;;5057724;28;20531;-65
2023/03/23 02:30:15;;;;;;;2.80;2.50;;;12.30;99.90;;;;;;5057768;28;20434;-66
2023/03/23 02:33:28;;;;;;;2.73;2.13;;;12.30;99.90;;;;;;5058079;28;20823;-66
2023/03/23 02:35:58;;;;;;;2.93;2.43;;;12.40;99.90;;;;;;5050326;28;20487;-66
2023/03/23 02:38:32;;;;;;;3.77;2.87;;;12.40;99.90;;;;;;5058037;28;20443;-65
2023/03/23 02:41:02;;;;;;;2.63;2.37;;;12.40;99.90;;;;;;5058037;28;20453;-65
2023/03/23 02:43:35;;;;;;;4.30;2.57;;;12.40;99.90;;;;;;5058644;28;20897;-66
2023/03/23 02:46:06;;;;;;;3.17;2.80;;;12.50;99.90;;;;;;5057477;28;20432;-66
2023/03/23 02:48:36;;;;;;;2.67;2.30;;;12.50;99.90;;;;;;5057887;28;20440;-66
2023/03/23 02:51:05;;;;;;;2.47;2.20;;;12.50;99.90;;;;;;5058613;28;20439;-65
2023/03/23 02:53:37;;;;;;;3.53;2.50;;;12.50;99.90;;;;;;5057870;28;20807;-66
2023/03/23 02:56:07;;;;;;;4.03;2.23;;;12.40;99.90;;;;;;5057471;28;20445;-66
2023/03/23 02:58:34;;;;;;;6.47;2.60;;;12.20;99.90;;;;;;5057679;28;20451;-66
2023/03/23 03:01:33;;;;;;;4.60;2.80;;;12.00;99.90;;;;;;5057645;28;20765;-66
2023/03/23 03:04:04;;;;;;;3.07;2.80;;;11.90;99.90;;;;;;5057202;28;20796;-66
2023/03/23 03:06:40;;;;;;;2.67;2.10;;;11.80;99.90;;;;;;5057867;28;20526;-66
2023/03/23 03:09:16;;;;;;;3.60;2.17;;;11.70;99.90;;;;;;5058204;28;20449;-65
2023/03/23 03:11:47;;;;;;;2.50;2.30;;;11.70;99.90;;;;;;5057687;28;20475;-65
2023/03/23 03:14:20;;;;;;;3.20;2.20;;;11.60;99.90;;;;;;5057509;28;20469;-65
2023/03/23 03:16:53;;;;;;;3.33;2.40;;;11.70;99.90;;;;;;5056687;28;20450;-66
2023/03/23 03:19:27;;;;;;;3.23;2.67;;;11.80;99.90;;;;;;5056988;28;20439;-66
2023/03/23 03:21:57;;;;;;;4.80;2.90;;;11.80;99.90;;;;;;5056868;28;20523;-65
2023/03/23 03:24:26;;;;;;;3.67;2.83;;;11.90;99.90;;;;;;5055594;28;20461;-66
2023/03/23 03:26:58;;;;;;;2.83;2.47;;;11.90;99.90;;;;;;5057618;28;20542;-66
2023/03/23 03:29:29;;;;;;;3.03;2.50;;;11.90;99.90;;;;;;5057348;28;20448;-66
2023/03/23 03:31:58;;;;;;;4.50;2.53;;;12.00;99.90;;;;;;5057882;28;20454;-66
2023/03/23 03:34:27;;;;;;;2.70;2.50;;;12.00;99.90;;;;;;5057072;28;20882;-65
2023/03/23 03:36:58;;;;;;;2.37;2.00;;;12.00;99.90;;;;;;5057482;28;20461;-66
2023/03/23 03:39:26;;;;;;;3.03;2.70;;;12.00;99.90;;;;;;5057868;28;20443;-66
2023/03/23 03:41:53;;;;;;;7.03;2.50;;;12.00;99.90;;;;;;5057722;28;20465;-65
2023/03/23 03:44:20;;;;;;;3.03;2.23;;;12.10;99.90;;;;;;5058338;28;20455;-65
2023/03/23 03:46:47;;;;;;;3.20;2.37;;;12.00;99.90;;;;;;5057400;28;20541;-66
2023/03/23 03:49:15;;;;;;;2.33;2.10;;;11.90;99.90;;;;;;5057489;28;20502;-66
2023/03/23 03:51:43;;;;;;;2.67;2.20;;;11.70;99.90;;;;;;5057507;28;20483;-65
2023/03/23 03:54:10;;;;;;;3.00;2.50;;;11.60;99.90;;;;;;5056813;28;20559;-65
2023/03/23 03:56:40;;;;;;;3.47;2.50;;;11.60;99.90;;;;;;5057322;28;20546;-66
2023/03/23 03:59:07;;;;;;;3.90;2.77;;;11.50;99.90;;;;;;5057178;28;20455;-66
2023/03/23 04:01:35;;;;;;;4.20;2.60;;;11.40;99.90;;;;;;5056284;28;20455;-66
2023/03/23 04:04:02;;;;;;;2.93;2.73;;;11.40;99.90;;;;;;5055380;28;20461;-66
2023/03/23 04:06:29;;;;;;;3.27;2.43;;;11.50;99.90;;;;;;5055367;28;20738;-66
2023/03/23 04:08:58;;;;;;;4.10;2.87;;;11.50;99.90;;;;;;5055749;28;20466;-66
2023/03/23 04:11:26;;;;;;;3.40;2.50;;;11.50;99.90;;;;;;5056317;28;20486;-66
2023/03/23 04:13:53;;;;;;;3.73;2.90;;;11.50;99.90;;;;;;5055944;28;20466;-65
2023/03/23 04:16:21;;;;;;;4.33;2.43;;;11.60;99.90;;;;;;5055659;28;20487;-66
2023/03/23 04:18:48;;;;;;;2.73;2.53;;;11.60;99.90;;;;;;5056571;28;20455;-66
2023/03/23 04:21:15;;;;;;;2.80;2.23;;;11.60;99.90;;;;;;5056342;28;20467;-66
2023/03/23 04:23:42;;;;;;;2.70;2.50;;;11.60;99.90;;;;;;5056183;28;20523;-66
2023/03/23 04:26:12;;;;;;;3.73;2.77;;;11.60;99.90;;;;;;5056272;28;20490;-65
2023/03/23 04:28:40;;;;;;;2.60;2.33;;;11.60;99.90;;;;;;5055962;28;20463;-65
2023/03/23 04:31:08;;;;;;;3.10;2.50;;;11.70;99.90;;;;;;5056397;28;20558;-66
2023/03/23 04:33:36;;;;;;;2.80;2.33;;;11.70;99.90;;;;;;5055365;28;20516;-67
2023/03/23 04:36:06;;;;;;;2.67;2.30;;;11.70;99.90;;;;;;5057552;28;20493;-67
2023/03/23 04:38:34;;;;;;;3.50;2.53;;;11.60;99.90;;;;;;5059574;28;20466;-66
2023/03/23 04:41:01;;;;;;;2.73;2.50;;;11.70;99.90;;;;;;5058432;28;20458;-67
2023/03/23 04:43:29;;;;;;;6.13;2.90;;;11.70;99.90;;;;;;5058851;28;20739;-66
2023/03/23 04:45:58;;;;;;;3.17;2.40;;;11.70;99.90;;;;;;5058890;28;20455;-68
2023/03/23 04:48:25;;;;;;;3.20;2.90;;;11.60;99.90;;;;;;5058849;28;20575;-66
2023/03/23 04:50:52;;;;;;;3.93;2.70;;;11.40;99.90;;;;;;5058595;28;20454;-67
2023/03/23 04:53:19;;;;;;;3.20;2.70;;;11.40;99.90;;;;;;5058264;28;20491;-68
2023/03/23 04:55:48;;;;;;;5.03;3.30;;;11.40;99.90;;;;;;5058203;28;21050;-66
2023/03/23 04:58:17;;;;;;;3.20;2.40;;;11.40;99.90;;;;;;5058527;28;20643;-68
2023/03/23 05:00:49;;;;;;;2.83;2.50;;;11.30;99.90;;;;;;5058673;28;20497;-67
2023/03/23 05:03:16;;;;;;;7.20;3.47;;;11.20;99.90;;;;;;5060115;28;20479;-67
2023/03/23 05:05:47;;;;;;;4.07;3.00;;;11.20;99.90;;;;;;5058161;28;20538;-67
2023/03/23 05:08:14;;;;;;;3.87;2.83;;;11.10;99.90;;;;;;5058104;28;20514;-68
2023/03/23 05:10:41;;;;;;;6.33;3.13;;;11.00;99.90;;;;;;5058255;28;20903;-67
2023/03/23 05:13:08;;;;;;;4.63;2.70;;;11.00;99.90;;;;;;5058300;28;20454;-67
2023/03/23 05:15:35;;;;;;;4.70;3.17;;;11.00;99.90;;;;;;5058006;28;20486;-66
2023/03/23 05:18:03;;;;;;;4.23;3.80;;;11.00;99.90;;;;;;5058237;28;20455;-67
2023/03/23 05:20:30;;;;;;;3.40;3.00;;;11.00;99.90;;;;;;5058295;28;20542;-66
2023/03/23 05:22:57;;;;;;;3.43;3.10;;;11.00;99.90;;;;;;5058051;28;20565;-67
2023/03/23 05:25:24;;;;;;;3.30;3.00;;;10.80;99.90;;;;;;5057552;28;20458;-66
2023/03/23 05:27:52;;;;;;;5.83;3.10;;;10.80;99.90;;;;;;5058028;28;20465;-68
2023/03/23 05:30:20;;;;;;;3.53;3.10;;;10.80;99.90;;;;;;5057557;28;20459;-68
2023/03/23 05:32:50;;;;;;;6.37;3.17;;;10.70;99.90;;;;;;5057388;28;20920;-68
2023/03/23 05:35:20;;;;;;;5.07;2.87;;;10.60;99.90;;;;;;5057254;28;20482;-68
2023/03/23 05:37:47;;;;;;;3.93;3.00;;;10.60;99.90;;;;;;5057555;28;20459;-67
2023/03/23 05:40:14;;;;;;;4.30;2.70;;;10.60;99.90;;;;;;5057918;28;20844;-68
2023/03/23 05:42:42;;;;;;;3.30;3.00;;;10.70;99.90;;;;;;5057695;28;20524;-66
2023/03/23 05:45:11;;;;;;;4.07;3.43;;;10.70;99.90;;;;;;5057313;28;20455;-68
2023/03/23 05:47:38;;;;;;;5.80;3.00;;;10.60;99.90;;;;;;5057078;28;20848;-67
2023/03/23 05:50:08;;;;;;;4.77;2.90;;;10.70;99.90;;;;;;5057733;28;20806;-67
2023/03/23 05:52:37;;;;;;;3.23;2.27;;;10.60;99.90;;;;;;5057998;28;20478;-67
2023/03/23 05:55:06;;;;;;;3.10;2.80;;;10.60;99.90;;;;;;5059043;28;20490;-68
2023/03/23 05:57:33;;;;;;;3.87;2.80;;;10.60;99.90;;;;;;5058321;28;20465;-68
2023/03/23 06:00:05;;;;;;;7.17;2.83;;;10.50;99.90;;;;;;5058735;28;20546;-70
2023/03/23 06:02:32;;;;;;;4.17;2.97;;;10.50;99.90;;;;;;5058158;28;20444;-68
2023/03/23 06:04:59;;;;;;;6.17;3.00;;;10.40;99.90;;;;;;5058035;28;20478;-70
2023/03/23 06:07:26;;;;;;;4.90;3.03;;;10.40;99.90;;;;;;5057500;28;20455;-68
2023/03/23 06:09:54;;;;;;;6.73;3.60;;;10.40;99.90;;;;;;5057281;28;20908;-69
2023/03/23 06:12:21;;;;;;;3.70;2.97;;;10.40;99.90;;;;;;5057368;28;20761;-70
2023/03/23 06:14:49;;;;;;;5.90;2.93;;;10.40;99.90;;;;;;5056726;28;20479;-69
2023/03/23 06:17:17;;;;;;;7.27;3.40;;;10.40;99.90;;;;;;5056940;28;20550;-71
2023/03/23 06:19:45;;;;;;;4.73;3.37;;;10.40;99.90;;;;;;5057260;28;20528;-70
2023/03/23 06:22:12;;;;;;;5.60;3.60;;;10.40;99.90;;;;;;5057266;28;20482;-71
2023/03/23 06:24:39;;;;;;;3.50;3.20;;;10.40;99.90;;;;;;5057031;28;20469;-70
2023/03/23 06:27:08;;;;;;;5.10;3.03;;;10.40;99.90;;;;;;5057470;28;20534;-70
2023/03/23 06:29:36;;;;;;;4.07;2.60;;;10.30;99.90;;;;;;5056875;28;20968;-69
2023/03/23 06:32:05;;;;;;;5.23;2.97;;;10.30;99.90;;;;;;5057261;28;20780;-70
2023/03/23 06:34:33;;;;;;;4.73;3.40;;;10.40;99.90;;;;;;5057212;28;20469;-68
2023/03/23 06:37:00;;;;;;;4.27;3.00;;;10.40;99.90;;;;;;5057156;28;20513;-68
2023/03/23 06:39:27;;;;;;;3.30;2.40;;;10.30;99.90;;;;;;5056709;28;21006;-69
2023/03/23 06:41:54;;;;;;;9.83;4.27;;;10.40;99.90;;;;;;5057009;28;20839;-69
2023/03/23 06:44:22;;;;;;;3.37;2.83;;;10.30;99.90;;;;;;5056492;28;20459;-71
2023/03/23 06:46:49;;;;;;;5.37;3.30;;;10.40;99.90;;;;;;5057244;28;20451;-70
2023/03/23 06:49:16;;;;;;;3.23;2.80;;;10.30;99.90;;;;;;5057095;28;20467;-71
2023/03/23 06:51:43;;;;;;;4.50;3.23;;;10.40;99.90;;;;;;5056774;28;20550;-68
2023/03/23 06:54:10;;;;;;;5.23;3.63;;;10.40;99.90;;;;;;5057133;28;20459;-69
2023/03/23 06:56:37;;;;;;;5.10;3.37;;;10.40;99.90;;;;;;5056832;28;20482;-69
2023/03/23 06:59:04;;;;;;;3.30;3.00;;;10.40;99.90;;;;;;5055888;28;20459;-69
2023/03/23 07:01:33;;;;;;;5.30;3.47;;;10.40;99.90;;;;;;5056294;28;20455;-68
2023/03/23 07:04:00;;;;;;;4.63;3.30;;;10.40;99.90;;;;;;5056580;28;20459;-67
2023/03/23 07:06:27;;;;;;;3.80;3.00;;;10.50;99.90;;;;;;5056609;28;20520;-69
2023/03/23 07:08:54;;;;;;;4.30;3.00;;;10.50;99.90;;;;;;5056547;28;20462;-69
2023/03/23 07:11:20;;;;;;;5.63;3.47;;;10.50;99.90;;;;;;5056357;28;20462;-69
2023/03/23 07:13:49;;;;;;;4.27;3.43;;;10.50;99.90;;;;;;5056507;28;20465;-69
2023/03/23 07:16:16;;;;;;;7.00;4.20;;;10.40;99.90;;;;;;5055900;28;20505;-69
2023/03/23 07:18:45;;;;;;;6.73;3.80;;;10.40;99.90;;;;;;5055863;28;20597;-69
2023/03/23 07:21:11;;;;;;;6.80;3.17;;;10.50;99.90;;;;;;5055994;28;20465;-70
2023/03/23 07:23:38;;;;;;;5.37;3.60;;;10.50;99.90;;;;;;5056646;28;20546;-69
2023/03/23 07:26:06;;;;;;;7.13;3.33;;;10.50;99.90;;;;;;5056154;28;20985;-69
2023/03/23 07:28:33;;;;;;;4.50;3.60;;;10.50;99.90;;;;;;5056446;28;20534;-68
2023/03/23 07:31:00;;;;;;;6.50;3.63;;;10.50;99.90;;;;;;5056393;28;20455;-68
2023/03/23 07:33:27;;;;;;;12.03;3.63;;;10.50;99.90;;;;;;5056288;28;20775;-68
2023/03/23 07:35:56;;;;;;;6.47;3.50;;;10.50;99.90;;;;;;5056126;28;20784;-68
2023/03/23 07:38:25;;;;;;;3.40;2.80;;;10.50;99.90;;;;;;5056094;28;20455;-70
2023/03/23 07:40:52;;;;;;;6.00;3.63;;;10.60;99.90;;;;;;5055596;28;20784;-69
2023/03/23 07:43:19;;;;;;;4.10;3.17;;;10.60;99.90;;;;;;5055183;28;20470;-69
2023/03/23 07:45:46;;;;;;;8.50;3.83;;;10.60;99.90;;;;;;5055712;28;20513;-69
2023/03/23 07:48:13;;;;;;;4.30;2.93;;;10.60;99.90;;;;;;5055326;28;20506;-69
2023/03/23 07:50:40;;;;;;;9.40;3.93;;;10.70;99.90;;;;;;5055356;28;20459;-69
2023/03/23 07:53:08;;;;;;;8.80;3.40;;;10.70;99.90;;;;;;5055159;28;20467;-69
2023/03/23 07:55:35;;;;;;;4.47;3.90;;;10.70;99.90;;;;;;5055436;28;20481;-68
2023/03/23 07:58:02;;;;;;;5.70;3.77;;;10.70;99.90;;;;;;5055905;28;20455;-67
2023/03/23 08:00:30;;;;;;;6.67;3.30;;;10.70;99.90;;;;;;5056213;28;20561;-68
2023/03/23 08:02:58;;;;;;;9.60;5.20;;;10.70;99.90;;;;;;5055630;28;20462;-68
2023/03/23 08:05:27;;;;;;;6.53;4.10;;;10.70;99.90;;;;;;5055428;28;20467;-67
2023/03/23 08:07:55;;;;;;;4.90;3.10;;;10.80;99.90;;;;;;5055689;28;20538;-67
2023/03/23 08:10:24;;;;;;;5.60;3.83;;;10.70;99.90;;;;;;5055466;28;20618;-67
2023/03/23 08:12:53;;;;;;;4.40;2.70;;;10.80;99.90;;;;;;5056844;28;20538;-67
2023/03/23 08:15:21;;;;;;;4.57;3.27;;;10.90;99.90;;;;;;5056932;28;20868;-68
2023/03/23 08:17:48;;;;;;;4.40;4.00;;;11.00;99.90;;;;;;5056802;28;20512;-68
2023/03/23 08:20:18;;;;;;;5.80;3.60;;;11.00;99.90;;;;;;5055215;28;20546;-67
2023/03/23 08:22:49;;;;;;;7.47;3.70;;;11.00;99.90;;;;;;5055429;28;20463;-67
2023/03/23 08:25:17;;;;;;;5.20;3.57;;;11.10;99.90;;;;;;5056666;28;20526;-67
2023/03/23 08:27:46;;;;;;;4.40;3.90;;;11.10;99.90;;;;;;5057946;28;20466;-68
2023/03/23 08:30:15;;;;;;;4.80;3.43;;;11.10;99.90;;;;;;5058382;28;20498;-67
2023/03/23 08:32:42;;;;;;;4.93;3.30;;;11.10;99.90;;;;;;5057388;28;20542;-66
2023/03/23 08:35:10;;;;;;;7.23;3.40;;;11.20;99.90;;;;;;5056989;28;20544;-67
2023/03/23 08:37:38;;;;;;;4.40;3.53;;;11.20;99.90;;;;;;5057256;28;20474;-67
2023/03/23 08:40:09;;;;;;;3.60;2.73;;;11.20;99.90;;;;;;5058349;28;20498;-66
2023/03/23 08:42:37;;;;;;;3.50;2.97;;;11.20;99.90;;;;;;5058257;28;20907;-66
2023/03/23 08:45:06;;;;;;;5.23;3.10;;;11.20;99.90;;;;;;5058103;28;20803;-67
2023/03/23 08:47:34;;;;;;;3.80;2.93;;;11.30;99.90;;;;;;5058767;28;20455;-67
2023/03/23 08:50:01;;;;;;;4.33;3.50;;;11.40;99.90;;;;;;5058653;28;20546;-66
2023/03/23 08:52:29;;;;;;;5.07;3.00;;;11.50;99.90;;;;;;5058937;28;20454;-67
2023/03/23 08:54:56;;;;;;;4.50;2.90;;;11.50;99.90;;;;;;5057560;28;20485;-67
2023/03/23 08:57:24;;;;;;;4.43;3.20;;;11.50;99.90;;;;;;5056998;28;21014;-67
2023/03/23 08:59:53;;;;;;;4.50;3.23;;;11.50;99.90;;;;;;5056546;28;20538;-68
2023/03/23 09:02:23;;;;;;;3.60;2.90;;;11.60;99.90;;;;;;5057048;28;20487;-67
2023/03/23 09:04:50;;;;;;;4.03;2.73;;;11.60;99.90;;;;;;5056551;28;20478;-68
2023/03/23 09:07:17;;;;;;;4.57;2.70;;;11.70;99.90;;;;;;5056825;28;20465;-68
2023/03/23 09:09:44;;;;;;;6.33;2.90;;;11.80;99.90;;;;;;5056456;28;20471;-69
2023/03/23 09:12:11;;;;;;;4.73;3.00;;;11.90;99.90;;;;;;5056528;28;20459;-67
2023/03/23 09:14:39;;;;;;;3.00;2.50;;;12.00;99.90;;;;;;5056698;28;20479;-67
2023/03/23 09:17:07;;;;;;;3.20;2.87;;;12.00;99.90;;;;;;5056458;28;20478;-67
2023/03/23 09:19:36;;;;;;;4.53;2.77;;;12.00;99.90;;;;;;5055448;28;20455;-67
2023/03/23 09:22:03;;;;;;;3.47;2.37;;;12.00;99.90;;;;;;5057894;28;20509;-66
2023/03/23 09:24:30;;;;;;;2.77;2.57;;;12.10;99.90;;;;;;5059842;28;20455;-67
2023/03/23 09:26:58;;;;;;;3.43;2.80;;;12.10;99.90;;;;;;5059068;28;20451;-65
2023/03/23 09:29:25;;;;;;;4.40;2.67;;;12.10;99.90;;;;;;5058016;28;20788;-65
2023/03/23 09:31:52;;;;;;;4.37;2.60;;;12.20;99.90;;;;;;5058041;28;20542;-64
2023/03/23 09:34:18;;;;;;;4.30;2.90;;;12.20;99.90;;;;;;5057540;28;20484;-64
2023/03/23 09:36:48;;;;;;;4.30;2.60;;;12.30;99.90;;;;;;5057873;28;20574;-65
2023/03/23 09:39:16;;;;;;;4.90;2.30;;;12.40;99.90;;;;;;5057653;28;20455;-63
2023/03/23 09:42:08;;;;;;;4.00;2.57;;;12.40;99.90;;;;;;5057583;28;20552;-64
2023/03/23 09:44:47;;;;;;;2.87;2.57;;;12.50;99.90;;;;;;5057550;28;20453;-65
2023/03/23 09:47:18;;;;;;;2.80;2.40;;;12.60;99.90;;;;;;5057785;28;20450;-64
2023/03/23 09:49:52;;;;;;;3.27;2.23;;;12.60;99.90;;;;;;5057433;28;20444;-64
2023/03/23 09:52:20;;;;;;;2.77;2.23;;;12.70;99.90;;;;;;5057460;28;20911;-64
2023/03/23 09:54:50;;;;;;;3.17;2.07;;;12.90;99.90;;;;;;5057610;28;20549;-64
2023/03/23 09:57:22;;;;;;;3.50;2.10;;;13.00;99.90;;;;;;5057776;28;21006;-63
2023/03/23 09:59:55;;;;;;;3.00;1.80;;;13.10;99.90;;;;;;5057714;28;20439;-64
2023/03/23 10:02:28;;;;;;;2.50;2.30;;;13.20;99.90;;;;;;5057294;28;20458;-64
2023/03/23 10:05:00;;;;;;;3.33;2.03;;;13.30;99.90;;;;;;5057083;28;20443;-64
2023/03/23 10:07:29;;;;;;;2.37;2.00;;;13.30;99.90;;;;;;5058099;28;20440;-63
2023/03/23 10:10:02;;;;;;;2.77;2.30;;;13.40;99.90;;;;;;5057342;28;20459;-64
2023/03/23 10:12:34;;;;;;;1.80;1.70;;;13.30;99.90;;;;;;5056861;28;20443;-63
2023/03/23 10:15:12;;;;;;;3.20;1.90;;;13.30;99.90;;;;;;5056680;28;20883;-64
2023/03/23 10:17:45;;;;;;;4.17;1.80;;;13.40;99.90;;;;;;5057382;28;20836;-65
2023/03/23 10:20:33;;;;;;;3.20;1.93;;;13.40;99.90;;;;;;5057196;28;20443;-63
2023/03/23 10:23:11;;;;;;;2.23;1.50;;;13.50;99.90;;;;;;5045172;28;20455;-63
2023/03/23 10:25:47;;;;;;;2.93;1.40;;;13.60;99.90;;;;;;5056662;28;20435;-62
2023/03/23 10:28:19;;;;;;;2.47;2.27;;;13.60;99.90;;;;;;5057037;28;20884;-63
2023/03/23 10:30:50;;;;;;;3.17;2.30;;;13.70;99.90;;;;;;5056924;28;20764;-64
2023/03/23 10:33:20;;;;;;;3.97;1.87;;;13.80;99.90;;;;;;5055899;28;20518;-63
2023/03/23 10:35:53;;;;;;;8.60;2.00;;;13.80;99.90;;;;;;5057214;28;20815;-62
2023/03/23 10:38:25;;;;;;;3.17;1.70;;;13.80;99.90;;;;;;5056512;28;20467;-64
2023/03/23 10:40:56;;;;;;;2.00;1.37;;;13.80;99.90;;;;;;5056414;28;20443;-65
2023/03/23 10:43:24;;;;;;;2.90;1.80;;;13.90;99.90;;;;;;5056665;28;20447;-62
2023/03/23 10:45:57;;;;;;;2.23;1.67;;;14.10;99.90;;;;;;5056699;28;20465;-64
2023/03/23 10:48:30;;;;;;;1.87;1.50;;;14.10;99.90;;;;;;5056330;28;20530;-63
2023/03/23 10:51:01;;;;;;;2.67;1.70;;;14.20;99.90;;;;;;5056049;28;20461;-63
2023/03/23 10:53:33;;;;;;;2.00;1.40;;;14.20;99.90;;;;;;5056372;28;20455;-63
2023/03/23 10:56:00;;;;;;;4.30;2.17;;;14.10;99.90;;;;;;5055949;28;20458;-61
2023/03/23 10:58:31;;;;;;;1.93;1.33;;;14.20;99.90;;;;;;5056274;28;20483;-61
2023/03/23 11:01:00;;;;;;;2.67;1.77;;;14.10;99.90;;;;;;5056394;28;20447;-61
2023/03/23 11:03:38;;;;;;;2.30;1.70;;;14.00;99.90;;;;;;5055865;28;20455;-62
2023/03/23 11:06:08;;;;;;;2.57;1.70;;;14.00;99.90;;;;;;5056293;28;20440;-63
2023/03/23 11:08:39;;;;;;;4.60;1.83;;;14.10;99.90;;;;;;5056199;28;20793;-62
2023/03/23 11:11:11;;;;;;;2.93;1.83;;;14.20;99.90;;;;;;5056997;28;20534;-62
2023/03/23 11:13:43;;;;;;;1.70;1.40;;;14.20;99.90;;;;;;5056317;28;20469;-63
2023/03/23 11:16:11;;;;;;;2.13;1.50;;;14.20;99.90;;;;;;5056047;28;20486;-62
2023/03/23 11:18:40;;;;;;;2.57;1.70;;;14.30;99.90;;;;;;5056253;28;20776;-61
2023/03/23 11:21:09;;;;;;;2.33;1.90;;;14.30;99.90;;;;;;5056012;28;20455;-63
2023/03/23 11:23:41;;;;;;;1.83;1.57;;;14.30;99.90;;;;;;5056543;28;20513;-62
2023/03/23 11:26:14;;;;;;;2.80;1.63;;;14.30;99.90;;;;;;5056261;28;20440;-63
2023/03/23 11:28:46;;;;;;;2.73;1.47;;;14.30;99.90;;;;;;5055737;28;20584;-63
2023/03/23 11:31:13;;;;;;;1.60;1.30;;;14.30;99.90;;;;;;5055571;28;20534;-62
2023/03/23 11:33:48;;;;;;;3.63;1.30;;;14.40;99.90;;;;;;5055825;28;20454;-61
2023/03/23 11:36:15;;;;;;;2.37;1.57;;;14.40;99.90;;;;;;5056391;28;20868;-62
2023/03/23 11:38:44;;;;;;;2.80;1.50;;;14.60;99.90;;;;;;5055535;28;20526;-62
2023/03/23 11:41:13;;;;;;;3.70;1.60;;;14.70;99.90;;;;;;5055442;28;20460;-62
2023/03/23 11:43:44;;;;;;;3.47;1.73;;;14.90;99.90;;;;;;5055124;28;20503;-63
2023/03/23 11:46:19;;;;;;;3.80;1.50;;;15.10;99.90;;;;;;5054110;28;20505;-63
2023/03/23 11:48:54;;;;;;;4.50;1.87;;;15.10;99.90;;;;;;5055639;28;20717;-63
2023/03/23 11:51:27;;;;;;;1.70;1.40;;;15.10;99.90;;;;;;5055080;28;20439;-62
2023/03/23 11:54:01;;;;;;;1.53;1.30;;;15.10;99.90;;;;;;5055293;28;20444;-62
2023/03/23 11:56:33;;;;;;;2.33;1.40;;;15.20;99.90;;;;;;5054925;28;20584;-64
2023/03/23 11:59:02;;;;;;;3.20;1.60;;;15.00;99.90;;;;;;5055439;28;20454;-62
2023/03/23 12:01:44;;;;;;;2.80;1.70;;;15.00;99.90;;;;;;5054534;28;20474;-63
2023/03/23 12:04:36;;;;;;;2.53;1.70;;;15.00;99.90;;;;;;5055212;28;20443;-63
2023/03/23 12:07:26;;;;;;;3.10;1.43;;;15.00;99.90;;;;;;5051896;28;20471;-60
2023/03/23 12:10:15;;;;;;;1.90;1.47;;;15.10;99.90;;;;;;5054690;28;20439;-61
2023/03/23 12:12:50;;;;;;;2.30;1.63;;;15.10;99.90;;;;;;5054260;28;20939;-63
2023/03/23 12:15:26;;;;;;;2.93;2.00;;;15.00;99.90;;;;;;5054563;28;20544;-63
2023/03/23 12:18:01;;;;;;;2.43;1.97;;;14.90;99.90;;;;;;5054324;28;20477;-63
2023/03/23 12:20:41;;;;;;;3.73;1.60;;;14.90;99.90;;;;;;5054490;28;20908;-62
2023/03/23 12:23:23;;;;;;;4.00;2.47;;;15.00;99.90;;;;;;5054982;28;20439;-62
2023/03/23 12:26:11;;;;;;;2.23;1.53;;;15.00;99.90;;;;;;5054402;28;20453;-63
2023/03/23 12:28:55;;;;;;;2.00;1.40;;;15.00;99.90;;;;;;5058012;28;20444;-66
2023/03/23 12:31:28;;;;;;;2.20;1.60;;;15.10;99.90;;;;;;5057887;28;20439;-65
2023/03/23 12:34:07;;;;;;;3.03;1.50;;;15.20;99.90;;;;;;5059358;28;20538;-66
2023/03/23 12:36:46;;;;;;;2.60;1.60;;;15.20;99.90;;;;;;5057241;28;20537;-66
2023/03/23 12:39:43;;;;;;;1.93;1.30;;;15.10;99.90;;;;;;5056324;28;20436;-66
2023/03/23 12:42:21;;;;;;;3.87;1.87;;;15.10;99.90;;;;;;5056752;28;20451;-67
2023/03/23 12:44:53;;;;;;;3.60;1.93;;;15.10;99.90;;;;;;5056814;28;20525;-66
2023/03/23 12:47:31;;;;;;;3.00;1.33;;;15.10;99.90;;;;;;5057162;28;20435;-65
2023/03/23 12:50:03;;;;;;;3.40;1.70;;;15.10;99.90;;;;;;5055710;28;20436;-67
2023/03/23 12:52:35;;;;;;;2.17;1.30;;;15.10;99.90;;;;;;5056292;28;20455;-66
2023/03/23 12:55:07;;;;;;;2.37;1.70;;;15.10;99.90;;;;;;5056291;28;20448;-66
2023/03/23 12:57:41;;;;;;;2.67;1.67;;;15.20;99.90;;;;;;5059601;28;20842;-66
2023/03/23 13:00:19;;;;;;;2.40;1.70;;;15.40;99.90;;;;;;5061158;28;20533;-66
2023/03/23 13:02:51;;;;;;;1.80;1.30;;;15.80;99.90;;;;;;5061205;28;20860;-65
2023/03/23 13:05:33;;;;;;;1.80;1.60;;;16.00;99.90;;;;;;5059662;28;20443;-66